sensor_id;sensor_type;location;lat;lon;timestamp;pressure;altitude;pressure_sealevel;temperature;humidity
2000;BME280;1001;48.87406500;9.59633600;2022-10-17T00:02:02;95701.50;;;17.34;76.92
2000;BME280;1001;48.87406500;9.59633600;2022-10-17T00:04:28;95700.47;;;17.40;76.39
2000;BME280;1001;48.87406500;9.59633600;2022-10-17T00:06:55;95697.06;;;17.45;76.04
2000;BME280;1001;48.87406500;9.59633600;2022-10-17T00:09:23;95703.13;;;17.45;75.23
2000;BME280;1001;48.87406500;9.59633600;2022-10-17T00:11:50;95707.63;;;17.45;75.00
2000;BME280;1001;48.87406500;9.59633600;2022-10-17T00:14:16;95708.16;;;17.47;75.02
2000;BME280;1001;48.87406500;9.59633600;2022-10-17T00:16:43;95704.47;;;17.48;74.60
2000;BME280;1001;48.87406500;9.59633600;2022-10-17T00:19:10;95706.13;;;17.54;73.91
2000;BME280;1001;48.87406500;9.59633600;2022-10-17T00:21:36;95707.75;;;17.60;74.11
2000;BME280;1001;48.87406500;9.59633600;2022-10-17T00:24:04;95711.19;;;17.65;73.70
2000;BME280;1001;48.87406500;9.59633600;2022-10-17T00:26:32;95712.22;;;17.59;73.29
2000;BME280;1001;48.87406500;9.59633600;2022-10-17T00:28:58;95715.66;;;17.55;73.24
2000;BME280;1001;48.87406500;9.59633600;2022-10-17T00:31:25;95716.16;;;17.52;73.86
2000;BME280;1001;48.87406500;9.59633600;2022-10-17T00:33:52;95711.94;;;17.56;73.27
2000;BME280;1001;48.87406500;9.59633600;2022-10-17T00:36:21;95711.72;;;17.62;72.90
2000;BME280;1001;48.87406500;9.59633600;2022-10-17T00:38:51;95721.00;;;17.65;72.93
2000;BME280;1001;48.87406500;9.59633600;2022-10-17T00:41:20;95723.66;;;17.65;72.72
2000;BME280;1001;48.87406500;9.59633600;2022-10-17T00:43:51;95719.88;;;17.56;72.59
2000;BME280;1001;48.87406500;9.59633600;2022-10-17T00:46:19;95722.50;;;17.56;72.56
2000;BME280;1001;48.87406500;9.59633600;2022-10-17T00:48:47;95728.56;;;17.51;72.05
2000;BME280;1001;48.87406500;9.59633600;2022-10-17T00:51:15;95727.31;;;17.59;71.32
2000;BME280;1001;48.87406500;9.59633600;2022-10-17T00:53:43;95717.44;;;17.49;72.00
2000;BME280;1001;48.87406500;9.59633600;2022-10-17T00:56:10;95707.59;;;17.40;71.94
2000;BME280;1001;48.87406500;9.59633600;2022-10-17T00:58:36;95713.91;;;17.34;72.03
2000;BME280;1001;48.87406500;9.59633600;2022-10-17T01:01:04;95717.38;;;17.39;71.89
2000;BME280;1001;48.87406500;9.59633600;2022-10-17T01:03:31;95717.66;;;17.43;71.63
2000;BME280;1001;48.87406500;9.59633600;2022-10-17T01:05:58;95713.38;;;17.37;71.58
2000;BME280;1001;48.87406500;9.59633600;2022-10-17T01:08:25;95720.44;;;17.21;72.28
2000;BME280;1001;48.87406500;9.59633600;2022-10-17T01:10:59;95712.78;;;17.20;72.18
2000;BME280;1001;48.87406500;9.59633600;2022-10-17T01:13:29;95715.66;;;17.18;71.64
2000;BME280;1001;48.87406500;9.59633600;2022-10-17T01:16:07;95717.19;;;17.09;72.10
2000;BME280;1001;48.87406500;9.59633600;2022-10-17T01:18:47;95720.09;;;17.08;72.16
2000;BME280;1001;48.87406500;9.59633600;2022-10-17T01:21:42;95717.69;;;17.06;71.91
2000;BME280;1001;48.87406500;9.59633600;2022-10-17T01:24:40;95716.94;;;17.11;71.94
2000;BME280;1001;48.87406500;9.59633600;2022-10-17T01:27:32;95715.34;;;17.10;71.96
2000;BME280;1001;48.87406500;9.59633600;2022-10-17T01:33:23;95712.75;;;17.15;71.51
2000;BME280;1001;48.87406500;9.59633600;2022-10-17T01:35:56;95716.19;;;17.15;70.71
2000;BME280;1001;48.87406500;9.59633600;2022-10-17T01:38:30;95712.81;;;17.25;70.35
2000;BME280;1001;48.87406500;9.59633600;2022-10-17T01:41:01;95701.41;;;17.19;70.19
2000;BME280;1001;48.87406500;9.59633600;2022-10-17T01:43:33;95704.31;;;17.18;70.07
2000;BME280;1001;48.87406500;9.59633600;2022-10-17T01:46:06;95710.13;;;17.20;69.80
2000;BME280;1001;48.87406500;9.59633600;2022-10-17T01:48:38;95708.06;;;17.27;69.72
2000;BME280;1001;48.87406500;9.59633600;2022-10-17T01:51:11;95699.03;;;17.23;69.91
2000;BME280;1001;48.87406500;9.59633600;2022-10-17T01:53:43;95695.25;;;17.09;70.53
2000;BME280;1001;48.87406500;9.59633600;2022-10-17T01:56:13;95698.16;;;17.07;70.97
2000;BME280;1001;48.87406500;9.59633600;2022-10-17T01:58:45;95703.16;;;17.04;70.95
2000;BME280;1001;48.87406500;9.59633600;2022-10-17T02:01:14;95695.97;;;16.99;71.31
2000;BME280;1001;48.87406500;9.59633600;2022-10-17T02:03:44;95703.13;;;16.98;71.40
2000;BME280;1001;48.87406500;9.59633600;2022-10-17T02:06:12;95697.78;;;16.93;70.95
2000;BME280;1001;48.87406500;9.59633600;2022-10-17T02:08:41;95694.88;;;16.95;70.54
2000;BME280;1001;48.87406500;9.59633600;2022-10-17T02:11:12;95703.88;;;16.94;70.48
2000;BME280;1001;48.87406500;9.59633600;2022-10-17T02:13:48;95701.25;;;16.94;69.85
2000;BME280;1001;48.87406500;9.59633600;2022-10-17T02:16:28;95700.47;;;16.98;68.91
2000;BME280;1001;48.87406500;9.59633600;2022-10-17T02:19:09;95704.47;;;17.06;69.59
2000;BME280;1001;48.87406500;9.59633600;2022-10-17T02:21:44;95693.94;;;17.11;69.39
2000;BME280;1001;48.87406500;9.59633600;2022-10-17T02:24:18;95695.63;;;17.27;68.43
2000;BME280;1001;48.87406500;9.59633600;2022-10-17T02:26:52;95695.59;;;17.22;68.68
2000;BME280;1001;48.87406500;9.59633600;2022-10-17T02:29:23;95695.59;;;17.22;68.78
2000;BME280;1001;48.87406500;9.59633600;2022-10-17T02:31:57;95692.97;;;17.27;68.04
2000;BME280;1001;48.87406500;9.59633600;2022-10-17T02:34:28;95693.06;;;17.42;67.47
2000;BME280;1001;48.87406500;9.59633600;2022-10-17T02:36:59;95697.34;;;17.48;67.43
2000;BME280;1001;48.87406500;9.59633600;2022-10-17T02:39:28;95693.63;;;17.49;66.58
2000;BME280;1001;48.87406500;9.59633600;2022-10-17T02:42:00;95695.25;;;17.50;66.14
2000;BME280;1001;48.87406500;9.59633600;2022-10-17T02:44:28;95701.13;;;17.57;66.06
2000;BME280;1001;48.87406500;9.59633600;2022-10-17T02:47:03;95698.50;;;17.62;64.87
2000;BME280;1001;48.87406500;9.59633600;2022-10-17T02:49:37;95707.22;;;17.58;65.19
2000;BME280;1001;48.87406500;9.59633600;2022-10-17T02:52:09;95703.78;;;17.67;64.14
2000;BME280;1001;48.87406500;9.59633600;2022-10-17T02:54:41;95705.91;;;17.65;64.46
2000;BME280;1001;48.87406500;9.59633600;2022-10-17T02:57:13;95708.22;;;17.52;65.04
2000;BME280;1001;48.87406500;9.59633600;2022-10-17T02:59:42;95704.84;;;17.61;65.16
2000;BME280;1001;48.87406500;9.59633600;2022-10-17T03:02:10;95709.31;;;17.61;65.40
2000;BME280;1001;48.87406500;9.59633600;2022-10-17T03:04:41;95712.78;;;17.66;65.18
2000;BME280;1001;48.87406500;9.59633600;2022-10-17T03:07:08;95710.81;;;17.47;65.10
2000;BME280;1001;48.87406500;9.59633600;2022-10-17T03:09:35;95716.06;;;17.42;65.82
2000;BME280;1001;48.87406500;9.59633600;2022-10-17T03:12:01;95712.34;;;17.38;66.02
2000;BME280;1001;48.87406500;9.59633600;2022-10-17T03:14:28;95708.66;;;17.39;65.64
2000;BME280;1001;48.87406500;9.59633600;2022-10-17T03:16:54;95708.09;;;17.32;65.58
2000;BME280;1001;48.87406500;9.59633600;2022-10-17T03:19:21;95714.91;;;17.28;66.10
2000;BME280;1001;48.87406500;9.59633600;2022-10-17T03:21:49;95707.78;;;17.28;66.26
2000;BME280;1001;48.87406500;9.59633600;2022-10-17T03:24:16;95713.88;;;17.29;66.92
2000;BME280;1001;48.87406500;9.59633600;2022-10-17T03:26:42;95711.25;;;17.29;66.92
2000;BME280;1001;48.87406500;9.59633600;2022-10-17T03:29:09;95712.03;;;17.29;65.94
2000;BME280;1001;48.87406500;9.59633600;2022-10-17T03:31:35;95718.09;;;17.25;66.78
2000;BME280;1001;48.87406500;9.59633600;2022-10-17T03:34:02;95715.22;;;17.31;65.92
2000;BME280;1001;48.87406500;9.59633600;2022-10-17T03:36:29;95718.56;;;17.17;67.00
2000;BME280;1001;48.87406500;9.59633600;2022-10-17T03:38:57;95720.41;;;17.16;67.46
2000;BME280;1001;48.87406500;9.59633600;2022-10-17T03:41:23;95716.75;;;17.22;66.36
2000;BME280;1001;48.87406500;9.59633600;2022-10-17T03:43:51;95726.28;;;17.28;66.09
2000;BME280;1001;48.87406500;9.59633600;2022-10-17T03:46:18;95727.75;;;17.46;64.92
2000;BME280;1001;48.87406500;9.59633600;2022-10-17T03:48:44;95727.59;;;17.67;64.16
2000;BME280;1001;48.87406500;9.59633600;2022-10-17T03:51:11;95727.13;;;17.76;63.51
2000;BME280;1001;48.87406500;9.59633600;2022-10-17T03:53:37;95730.59;;;17.81;64.07
2000;BME280;1001;48.87406500;9.59633600;2022-10-17T03:56:11;95732.69;;;17.84;64.09
2000;BME280;1001;48.87406500;9.59633600;2022-10-17T03:58:38;95730.31;;;17.83;64.00
2000;BME280;1001;48.87406500;9.59633600;2022-10-17T04:01:06;95726.38;;;17.90;64.14
2000;BME280;1001;48.87406500;9.59633600;2022-10-17T04:03:33;95734.06;;;17.92;63.96
2000;BME280;1001;48.87406500;9.59633600;2022-10-17T04:06:00;95730.59;;;17.91;63.45
2000;BME280;1001;48.87406500;9.59633600;2022-10-17T04:08:27;95743.28;;;17.79;64.23
2000;BME280;1001;48.87406500;9.59633600;2022-10-17T04:10:57;95732.69;;;17.84;64.06
2000;BME280;1001;48.87406500;9.59633600;2022-10-17T04:13:25;95732.97;;;17.83;64.52
2000;BME280;1001;48.87406500;9.59633600;2022-10-17T04:15:55;95731.84;;;17.68;65.15
2000;BME280;1001;48.87406500;9.59633600;2022-10-17T04:18:22;95734.97;;;17.60;64.95
2000;BME280;1001;48.87406500;9.59633600;2022-10-17T04:20:50;95741.59;;;17.58;64.91
2000;BME280;1001;48.87406500;9.59633600;2022-10-17T04:23:17;95737.63;;;17.65;64.83
2000;BME280;1001;48.87406500;9.59633600;2022-10-17T04:25:43;95740.25;;;17.60;64.65
2000;BME280;1001;48.87406500;9.59633600;2022-10-17T04:28:10;95745.84;;;17.64;64.19
2000;BME280;1001;48.87406500;9.59633600;2022-10-17T04:30:38;95743.16;;;17.59;64.06
2000;BME280;1001;48.87406500;9.59633600;2022-10-17T04:33:05;95742.53;;;17.47;64.79
2000;BME280;1001;48.87406500;9.59633600;2022-10-17T04:35:32;95744.38;;;17.46;65.21
2000;BME280;1001;48.87406500;9.59633600;2022-10-17T04:37:58;95746.38;;;17.66;64.59
2000;BME280;1001;48.87406500;9.59633600;2022-10-17T04:40:25;95745.09;;;17.74;64.51
2000;BME280;1001;48.87406500;9.59633600;2022-10-17T04:42:52;95749.63;;;17.78;64.79
2000;BME280;1001;48.87406500;9.59633600;2022-10-17T04:45:18;95750.94;;;17.81;65.25
2000;BME280;1001;48.87406500;9.59633600;2022-10-17T04:47:46;95764.97;;;17.76;65.39
2000;BME280;1001;48.87406500;9.59633600;2022-10-17T04:50:13;95755.72;;;17.79;65.89
2000;BME280;1001;48.87406500;9.59633600;2022-10-17T04:52:39;95753.56;;;17.76;66.02
2000;BME280;1001;48.87406500;9.59633600;2022-10-17T04:55:06;95751.97;;;17.70;66.66
2000;BME280;1001;48.87406500;9.59633600;2022-10-17T04:57:34;95750.03;;;17.55;67.43
2000;BME280;1001;48.87406500;9.59633600;2022-10-17T05:00:01;95755.06;;;17.56;67.54
2000;BME280;1001;48.87406500;9.59633600;2022-10-17T05:02:27;95751.09;;;17.59;67.48
2000;BME280;1001;48.87406500;9.59633600;2022-10-17T05:04:55;95755.56;;;17.53;67.60
2000;BME280;1001;48.87406500;9.59633600;2022-10-17T05:07:22;95753.97;;;17.52;67.85
2000;BME280;1001;48.87406500;9.59633600;2022-10-17T05:09:48;95754.50;;;17.54;67.61
2000;BME280;1001;48.87406500;9.59633600;2022-10-17T05:12:15;95755.31;;;17.55;67.38
2000;BME280;1001;48.87406500;9.59633600;2022-10-17T05:14:41;95751.59;;;17.56;67.71
2000;BME280;1001;48.87406500;9.59633600;2022-10-17T05:17:08;95744.47;;;17.56;67.81
2000;BME280;1001;48.87406500;9.59633600;2022-10-17T05:19:35;95746.88;;;17.58;67.73
2000;BME280;1001;48.87406500;9.59633600;2022-10-17T05:22:03;95755.63;;;17.63;67.54
2000;BME280;1001;48.87406500;9.59633600;2022-10-17T05:24:29;95749.53;;;17.63;68.05
2000;BME280;1001;48.87406500;9.59633600;2022-10-17T05:26:56;95751.09;;;17.59;68.04
2000;BME280;1001;48.87406500;9.59633600;2022-10-17T05:29:22;95755.34;;;17.60;68.40
2000;BME280;1001;48.87406500;9.59633600;2022-10-17T05:31:49;95749.44;;;17.48;68.98
2000;BME280;1001;48.87406500;9.59633600;2022-10-17T05:34:16;95754.16;;;17.41;69.18
2000;BME280;1001;48.87406500;9.59633600;2022-10-17T05:36:42;95756.53;;;17.42;69.13
2000;BME280;1001;48.87406500;9.59633600;2022-10-17T05:39:12;95752.28;;;17.36;69.87
2000;BME280;1001;48.87406500;9.59633600;2022-10-17T05:41:43;95748.63;;;17.47;69.40
2000;BME280;1001;48.87406500;9.59633600;2022-10-17T05:44:10;95749.97;;;17.50;69.23
2000;BME280;1001;48.87406500;9.59633600;2022-10-17T05:46:37;95745.69;;;17.44;69.08
2000;BME280;1001;48.87406500;9.59633600;2022-10-17T05:49:04;95746.22;;;17.41;69.46
2000;BME280;1001;48.87406500;9.59633600;2022-10-17T05:51:32;95751.28;;;17.47;69.38
2000;BME280;1001;48.87406500;9.59633600;2022-10-17T05:53:58;95752.56;;;17.45;69.12
2000;BME280;1001;48.87406500;9.59633600;2022-10-17T05:56:26;95755.22;;;17.45;68.91
2000;BME280;1001;48.87406500;9.59633600;2022-10-17T05:58:53;95758.31;;;17.32;69.65
2000;BME280;1001;48.87406500;9.59633600;2022-10-17T06:01:19;95765.53;;;17.41;69.46
2000;BME280;1001;48.87406500;9.59633600;2022-10-17T06:03:46;95768.00;;;17.53;68.87
2000;BME280;1001;48.87406500;9.59633600;2022-10-17T06:06:13;95782.81;;;17.54;69.00
2000;BME280;1001;48.87406500;9.59633600;2022-10-17T06:08:41;95791.03;;;17.57;69.60
2000;BME280;1001;48.87406500;9.59633600;2022-10-17T06:11:08;95784.03;;;17.46;70.31
2000;BME280;1001;48.87406500;9.59633600;2022-10-17T06:13:36;95782.97;;;17.42;69.96
2000;BME280;1001;48.87406500;9.59633600;2022-10-17T06:16:02;95787.25;;;17.48;70.54
2000;BME280;1001;48.87406500;9.59633600;2022-10-17T06:18:29;95789.31;;;17.41;71.43
2000;BME280;1001;48.87406500;9.59633600;2022-10-17T06:21:01;95791.03;;;17.26;72.57
2000;BME280;1001;48.87406500;9.59633600;2022-10-17T06:23:28;95795.53;;;17.25;72.78
2000;BME280;1001;48.87406500;9.59633600;2022-10-17T06:25:57;95796.50;;;17.14;73.01
2000;BME280;1001;48.87406500;9.59633600;2022-10-17T06:28:24;95804.09;;;17.06;73.90
2000;BME280;1001;48.87406500;9.59633600;2022-10-17T06:30:52;95796.47;;;16.82;75.47
2000;BME280;1001;48.87406500;9.59633600;2022-10-17T06:33:18;95804.03;;;16.69;77.03
2000;BME280;1001;48.87406500;9.59633600;2022-10-17T06:35:50;95794.34;;;16.53;77.87
2000;BME280;1001;48.87406500;9.59633600;2022-10-17T06:38:16;95799.28;;;16.49;79.01
2000;BME280;1001;48.87406500;9.59633600;2022-10-17T06:40:43;95801.03;;;16.39;80.01
2000;BME280;1001;48.87406500;9.59633600;2022-10-17T06:43:10;95821.84;;;16.35;80.56
2000;BME280;1001;48.87406500;9.59633600;2022-10-17T06:45:37;95822.44;;;16.42;80.50
2000;BME280;1001;48.87406500;9.59633600;2022-10-17T06:48:05;95816.13;;;16.43;80.83
2000;BME280;1001;48.87406500;9.59633600;2022-10-17T06:50:33;95823.44;;;16.36;81.38
2000;BME280;1001;48.87406500;9.59633600;2022-10-17T06:53:00;95818.59;;;16.28;82.58
2000;BME280;1001;48.87406500;9.59633600;2022-10-17T06:55:26;95825.72;;;16.27;82.73
2000;BME280;1001;48.87406500;9.59633600;2022-10-17T06:57:53;95826.03;;;16.31;82.73
2000;BME280;1001;48.87406500;9.59633600;2022-10-17T07:00:20;95823.94;;;16.33;82.84
2000;BME280;1001;48.87406500;9.59633600;2022-10-17T07:02:48;95833.44;;;16.34;82.41
2000;BME280;1001;48.87406500;9.59633600;2022-10-17T07:05:16;95837.19;;;16.38;82.01
2000;BME280;1001;48.87406500;9.59633600;2022-10-17T07:07:43;95838.22;;;16.54;81.20
2000;BME280;1001;48.87406500;9.59633600;2022-10-17T07:10:10;95842.66;;;16.75;80.48
2000;BME280;1001;48.87406500;9.59633600;2022-10-17T07:12:37;95844.44;;;16.96;81.92
2000;BME280;1001;48.87406500;9.59633600;2022-10-17T07:15:04;95849.09;;;17.16;82.28
2000;BME280;1001;48.87406500;9.59633600;2022-10-17T07:17:31;95848.75;;;17.34;81.78
2000;BME280;1001;48.87406500;9.59633600;2022-10-17T07:19:58;95850.94;;;17.47;77.24
2000;BME280;1001;48.87406500;9.59633600;2022-10-17T07:22:26;95851.66;;;17.64;77.95
2000;BME280;1001;48.87406500;9.59633600;2022-10-17T07:24:52;95857.03;;;17.79;77.98
2000;BME280;1001;48.87406500;9.59633600;2022-10-17T07:27:19;95857.09;;;17.89;77.16
2000;BME280;1001;48.87406500;9.59633600;2022-10-17T07:29:45;95860.84;;;17.98;76.38
2000;BME280;1001;48.87406500;9.59633600;2022-10-17T07:32:12;95858.56;;;18.12;77.21
2000;BME280;1001;48.87406500;9.59633600;2022-10-17T07:34:39;95865.00;;;18.31;77.96
2000;BME280;1001;48.87406500;9.59633600;2022-10-17T07:37:05;95870.16;;;18.58;77.59
2000;BME280;1001;48.87406500;9.59633600;2022-10-17T07:39:35;95863.88;;;18.79;74.98
2000;BME280;1001;48.87406500;9.59633600;2022-10-17T07:42:04;95863.66;;;18.90;73.90
2000;BME280;1001;48.87406500;9.59633600;2022-10-17T07:44:32;95867.66;;;19.08;74.42
2000;BME280;1001;48.87406500;9.59633600;2022-10-17T07:46:59;95872.19;;;19.23;74.36
2000;BME280;1001;48.87406500;9.59633600;2022-10-17T07:49:26;95868.22;;;19.35;73.45
2000;BME280;1001;48.87406500;9.59633600;2022-10-17T07:51:52;95875.94;;;19.42;71.86
2000;BME280;1001;48.87406500;9.59633600;2022-10-17T07:54:19;95865.88;;;19.59;70.48
2000;BME280;1001;48.87406500;9.59633600;2022-10-17T07:56:47;95877.78;;;19.72;69.63
2000;BME280;1001;48.87406500;9.59633600;2022-10-17T07:59:15;95875.13;;;19.87;67.81
2000;BME280;1001;48.87406500;9.59633600;2022-10-17T08:01:42;95879.09;;;19.94;65.85
2000;BME280;1001;48.87406500;9.59633600;2022-10-17T08:04:08;95870.09;;;19.80;67.81
2000;BME280;1001;48.87406500;9.59633600;2022-10-17T08:06:35;95868.78;;;19.83;71.08
2000;BME280;1001;48.87406500;9.59633600;2022-10-17T08:09:02;95869.53;;;19.83;72.60
2000;BME280;1001;48.87406500;9.59633600;2022-10-17T08:11:28;95877.50;;;20.03;72.76
2000;BME280;1001;48.87406500;9.59633600;2022-10-17T08:13:56;95879.63;;;20.06;74.60
2000;BME280;1001;48.87406500;9.59633600;2022-10-17T08:16:23;95871.91;;;20.00;76.55
2000;BME280;1001;48.87406500;9.59633600;2022-10-17T08:18:50;95881.44;;;20.16;72.62
2000;BME280;1001;48.87406500;9.59633600;2022-10-17T08:21:16;95881.72;;;20.24;69.32
2000;BME280;1001;48.87406500;9.59633600;2022-10-17T08:23:43;95884.88;;;20.42;68.73
2000;BME280;1001;48.87406500;9.59633600;2022-10-17T08:26:10;95887.75;;;20.45;67.03
2000;BME280;1001;48.87406500;9.59633600;2022-10-17T08:28:39;95888.25;;;20.52;69.18
2000;BME280;1001;48.87406500;9.59633600;2022-10-17T08:31:09;95884.00;;;20.56;67.82
2000;BME280;1001;48.87406500;9.59633600;2022-10-17T08:33:36;95885.59;;;20.57;68.02
2000;BME280;1001;48.87406500;9.59633600;2022-10-17T08:36:04;95895.41;;;20.57;67.44
2000;BME280;1001;48.87406500;9.59633600;2022-10-17T08:38:32;95900.91;;;20.75;68.30
2000;BME280;1001;48.87406500;9.59633600;2022-10-17T08:41:02;95895.88;;;20.79;68.60
2000;BME280;1001;48.87406500;9.59633600;2022-10-17T08:43:50;95895.22;;;21.07;68.24
2000;BME280;1001;48.87406500;9.59633600;2022-10-17T08:46:28;95909.22;;;21.23;67.43
2000;BME280;1001;48.87406500;9.59633600;2022-10-17T08:48:58;95902.81;;;21.29;66.99
2000;BME280;1001;48.87406500;9.59633600;2022-10-17T08:51:30;95894.66;;;21.49;68.83
2000;BME280;1001;48.87406500;9.59633600;2022-10-17T08:54:05;95902.03;;;21.62;68.52
2000;BME280;1001;48.87406500;9.59633600;2022-10-17T08:56:40;95902.53;;;21.64;69.52
2000;BME280;1001;48.87406500;9.59633600;2022-10-17T08:59:10;95903.44;;;21.49;67.30
2000;BME280;1001;48.87406500;9.59633600;2022-10-17T09:01:43;95909.53;;;21.55;67.45
2000;BME280;1001;48.87406500;9.59633600;2022-10-17T09:04:34;95915.69;;;21.50;67.57
2000;BME280;1001;48.87406500;9.59633600;2022-10-17T09:07:08;95918.81;;;21.62;67.90
2000;BME280;1001;48.87406500;9.59633600;2022-10-17T09:09:43;95919.22;;;21.75;70.00
2000;BME280;1001;48.87406500;9.59633600;2022-10-17T09:12:16;95923.38;;;21.96;71.83
2000;BME280;1001;48.87406500;9.59633600;2022-10-17T09:15:09;95933.06;;;22.10;73.70
2000;BME280;1001;48.87406500;9.59633600;2022-10-17T09:17:45;95926.41;;;22.36;71.85
2000;BME280;1001;48.87406500;9.59633600;2022-10-17T09:20:18;95925.00;;;22.44;67.87
2000;BME280;1001;48.87406500;9.59633600;2022-10-17T09:22:49;95933.59;;;22.36;65.13
2000;BME280;1001;48.87406500;9.59633600;2022-10-17T09:25:19;95931.94;;;22.45;64.99
2000;BME280;1001;48.87406500;9.59633600;2022-10-17T09:27:48;95928.38;;;22.55;65.41
2000;BME280;1001;48.87406500;9.59633600;2022-10-17T09:30:26;95929.28;;;22.45;63.81
2000;BME280;1001;48.87406500;9.59633600;2022-10-17T09:32:55;95925.63;;;22.60;65.48
2000;BME280;1001;48.87406500;9.59633600;2022-10-17T09:35:23;95924.66;;;22.51;63.54
2000;BME280;1001;48.87406500;9.59633600;2022-10-17T09:37:51;95921.22;;;22.50;62.59
2000;BME280;1001;48.87406500;9.59633600;2022-10-17T09:40:23;95925.41;;;22.56;64.39
2000;BME280;1001;48.87406500;9.59633600;2022-10-17T09:42:50;95929.72;;;22.52;67.67
2000;BME280;1001;48.87406500;9.59633600;2022-10-17T09:45:19;95939.28;;;22.82;70.10
2000;BME280;1001;48.87406500;9.59633600;2022-10-17T09:47:56;95937.34;;;22.87;62.41
2000;BME280;1001;48.87406500;9.59633600;2022-10-17T09:50:27;95938.97;;;22.83;67.81
2000;BME280;1001;48.87406500;9.59633600;2022-10-17T09:52:54;95934.84;;;22.72;66.12
2000;BME280;1001;48.87406500;9.59633600;2022-10-17T09:55:27;95939.44;;;22.67;65.55
2000;BME280;1001;48.87406500;9.59633600;2022-10-17T09:57:59;95940.53;;;22.66;65.97
2000;BME280;1001;48.87406500;9.59633600;2022-10-17T10:00:28;95942.47;;;22.55;62.95
2000;BME280;1001;48.87406500;9.59633600;2022-10-17T10:03:13;95937.53;;;22.44;63.44
2000;BME280;1001;48.87406500;9.59633600;2022-10-17T10:05:40;95940.81;;;22.35;64.86
2000;BME280;1001;48.87406500;9.59633600;2022-10-17T10:08:14;95933.53;;;22.17;63.59
2000;BME280;1001;48.87406500;9.59633600;2022-10-17T10:10:41;95935.00;;;22.05;60.02
2000;BME280;1001;48.87406500;9.59633600;2022-10-17T10:13:16;95935.28;;;21.98;62.62
2000;BME280;1001;48.87406500;9.59633600;2022-10-17T10:15:45;95934.53;;;21.98;63.11
2000;BME280;1001;48.87406500;9.59633600;2022-10-17T10:18:32;95936.09;;;21.99;62.67
2000;BME280;1001;48.87406500;9.59633600;2022-10-17T10:21:08;95934.19;;;22.04;62.59
2000;BME280;1001;48.87406500;9.59633600;2022-10-17T10:23:37;95937.31;;;22.11;61.32
2000;BME280;1001;48.87406500;9.59633600;2022-10-17T10:26:19;95937.50;;;22.20;64.02
2000;BME280;1001;48.87406500;9.59633600;2022-10-17T10:28:56;95939.53;;;22.33;62.70
2000;BME280;1001;48.87406500;9.59633600;2022-10-17T10:31:29;95939.22;;;22.34;64.07
2000;BME280;1001;48.87406500;9.59633600;2022-10-17T10:34:00;95941.63;;;22.60;65.04
2000;BME280;1001;48.87406500;9.59633600;2022-10-17T10:36:43;95935.34;;;22.74;61.99
2000;BME280;1001;48.87406500;9.59633600;2022-10-17T10:39:25;95935.53;;;22.83;64.43
2000;BME280;1001;48.87406500;9.59633600;2022-10-17T10:41:53;95936.66;;;22.77;60.83
2000;BME280;1001;48.87406500;9.59633600;2022-10-17T10:44:23;95943.25;;;22.84;61.19
2000;BME280;1001;48.87406500;9.59633600;2022-10-17T10:47:14;95938.44;;;23.05;62.56
2000;BME280;1001;48.87406500;9.59633600;2022-10-17T10:49:43;95941.22;;;23.19;60.65
2000;BME280;1001;48.87406500;9.59633600;2022-10-17T10:52:17;95943.16;;;23.13;61.28
2000;BME280;1001;48.87406500;9.59633600;2022-10-17T10:54:53;95947.09;;;22.97;60.03
2000;BME280;1001;48.87406500;9.59633600;2022-10-17T10:57:24;95947.50;;;22.85;59.89
2000;BME280;1001;48.87406500;9.59633600;2022-10-17T10:59:58;95948.38;;;22.81;61.74
2000;BME280;1001;48.87406500;9.59633600;2022-10-17T11:02:34;95950.69;;;22.87;61.68
2000;BME280;1001;48.87406500;9.59633600;2022-10-17T11:05:08;95951.81;;;22.81;63.22
2000;BME280;1001;48.87406500;9.59633600;2022-10-17T11:07:40;95940.47;;;22.94;62.28
2000;BME280;1001;48.87406500;9.59633600;2022-10-17T11:10:13;95944.41;;;22.78;59.48
2000;BME280;1001;48.87406500;9.59633600;2022-10-17T11:12:44;95949.94;;;22.82;60.70
2000;BME280;1001;48.87406500;9.59633600;2022-10-17T11:15:19;95941.03;;;22.91;63.75
2000;BME280;1001;48.87406500;9.59633600;2022-10-17T11:17:54;95950.50;;;22.79;64.04
2000;BME280;1001;48.87406500;9.59633600;2022-10-17T11:20:29;95952.75;;;22.67;61.95
2000;BME280;1001;48.87406500;9.59633600;2022-10-17T11:23:07;95949.13;;;22.81;62.76
2000;BME280;1001;48.87406500;9.59633600;2022-10-17T11:25:39;95949.97;;;23.00;64.93
2000;BME280;1001;48.87406500;9.59633600;2022-10-17T11:28:11;95949.81;;;22.92;62.41
2000;BME280;1001;48.87406500;9.59633600;2022-10-17T11:30:44;95948.63;;;23.03;66.68
2000;BME280;1001;48.87406500;9.59633600;2022-10-17T11:33:14;95948.91;;;23.01;63.46
2000;BME280;1001;48.87406500;9.59633600;2022-10-17T11:35:46;95943.94;;;23.14;64.94
2000;BME280;1001;48.87406500;9.59633600;2022-10-17T11:38:18;95944.28;;;23.07;63.82
2000;BME280;1001;48.87406500;9.59633600;2022-10-17T11:40:49;95945.53;;;23.15;62.34
2000;BME280;1001;48.87406500;9.59633600;2022-10-17T11:43:19;95946.75;;;23.22;60.97
2000;BME280;1001;48.87406500;9.59633600;2022-10-17T11:45:52;95940.97;;;23.39;63.42
2000;BME280;1001;48.87406500;9.59633600;2022-10-17T11:48:22;95939.50;;;23.28;56.78
2000;BME280;1001;48.87406500;9.59633600;2022-10-17T11:50:59;95945.19;;;23.21;56.61
2000;BME280;1001;48.87406500;9.59633600;2022-10-17T11:53:28;95943.72;;;23.29;59.22
2000;BME280;1001;48.87406500;9.59633600;2022-10-17T11:55:58;95942.31;;;23.36;62.26
2000;BME280;1001;48.87406500;9.59633600;2022-10-17T11:58:32;95944.88;;;23.46;57.58
2000;BME280;1001;48.87406500;9.59633600;2022-10-17T12:01:08;95939.22;;;23.66;61.01